Time;durP1;ratioP1;P1;durP2;ratioP2;P2;SDS_P1;SDS_P2;PMS_P1;PMS_P2;Temp;Humidity;BMP_temperature;BMP_pressure;BME280_temperature;BME280_humidity;BME280_pressure;Samples;Min_cycle;Max_cycle;Signal;HPM_P1;HPM_P2
2021/05/22 00:00:11;;;;;;;1.50;1.00;;;;;;;;;;5098199;28;20200;-82
2021/05/22 00:02:38;;;;;;;0.68;0.68;;;;;;;;;;5098179;28;20694;-83
2021/05/22 00:05:08;;;;;;;0.88;0.70;;;;;;;;;;5096970;28;20202;-82
2021/05/22 00:07:35;;;;;;;2.05;0.60;;;;;;;;;;5097160;28;20208;-82
2021/05/22 00:10:04;;;;;;;0.70;0.60;;;;;;;;;;5097795;28;20201;-83
2021/05/22 00:12:31;;;;;;;0.60;0.60;;;;;;;;;;5097633;28;20239;-83
2021/05/22 00:14:57;;;;;;;0.57;0.57;;;;;;;;;;5097998;28;20200;-83
2021/05/22 00:17:24;;;;;;;0.63;0.40;;;;;;;;;;5097695;28;20231;-83
2021/05/22 00:19:51;;;;;;;1.48;0.60;;;;;;;;;;5097628;28;20592;-83
2021/05/22 00:22:19;;;;;;;0.45;0.45;;;;;;;;;;5098917;28;20204;-83
2021/05/22 00:24:46;;;;;;;0.85;0.73;;;;;;;;;;5100319;28;20204;-82
2021/05/22 00:27:13;;;;;;;3.78;1.35;;;;;;;;;;5100673;28;20227;-83
2021/05/22 00:29:39;;;;;;;0.80;0.80;;;;;;;;;;5097302;28;20211;-83
2021/05/22 00:32:07;;;;;;;0.50;0.50;;;;;;;;;;5097443;28;20204;-83
2021/05/22 00:34:34;;;;;;;1.42;1.00;;;;;;;;;;5097271;28;20192;-83
2021/05/22 00:37:00;;;;;;;0.40;0.40;;;;;;;;;;5097418;28;20224;-84
2021/05/22 00:39:28;;;;;;;1.55;0.95;;;;;;;;;;5097612;28;20207;-84
2021/05/22 00:41:55;;;;;;;0.60;0.60;;;;;;;;;;5098617;28;20235;-84
2021/05/22 00:44:22;;;;;;;0.73;0.70;;;;;;;;;;5097781;28;20216;-83
2021/05/22 00:46:49;;;;;;;1.80;1.70;;;;;;;;;;5097816;28;20307;-83
2021/05/22 00:49:16;;;;;;;2.45;1.17;;;;;;;;;;5097567;28;20196;-84
2021/05/22 00:51:43;;;;;;;0.88;0.82;;;;;;;;;;5098730;28;20215;-84
2021/05/22 00:54:10;;;;;;;0.80;0.77;;;;;;;;;;5093769;28;20207;-83
2021/05/22 00:56:38;;;;;;;0.80;0.80;;;;;;;;;;5092803;28;20729;-84
2021/05/22 00:59:05;;;;;;;0.80;0.80;;;;;;;;;;5093061;28;20200;-83
2021/05/22 01:01:32;;;;;;;0.70;0.70;;;;;;;;;;5092926;28;20587;-83
2021/05/22 01:03:58;;;;;;;0.57;0.52;;;;;;;;;;5092785;28;20231;-83
2021/05/22 01:06:30;;;;;;;1.42;0.90;;;;;;;;;;5092779;28;20200;-84
2021/05/22 01:08:59;;;;;;;2.33;0.90;;;;;;;;;;5093306;28;20196;-83
2021/05/22 01:11:30;;;;;;;3.17;1.27;;;;;;;;;;5093673;28;20204;-83
2021/05/22 01:14:03;;;;;;;1.83;0.70;;;;;;;;;;5093246;28;20711;-83
2021/05/22 01:16:30;;;;;;;0.70;0.70;;;;;;;;;;5093022;28;20220;-83
2021/05/22 01:18:58;;;;;;;1.25;0.80;;;;;;;;;;5093444;28;20204;-83
2021/05/22 01:21:25;;;;;;;3.45;1.00;;;;;;;;;;5093426;28;20200;-83
2021/05/22 01:23:56;;;;;;;2.40;0.80;;;;;;;;;;5093315;28;20220;-82
2021/05/22 01:26:25;;;;;;;1.55;0.90;;;;;;;;;;5093490;28;20197;-83
2021/05/22 01:28:52;;;;;;;2.90;0.88;;;;;;;;;;5095071;28;20199;-84
2021/05/22 01:31:19;;;;;;;1.08;0.90;;;;;;;;;;5097672;28;20200;-84
2021/05/22 01:33:46;;;;;;;1.23;1.10;;;;;;;;;;5097074;28;20211;-83
2021/05/22 01:36:13;;;;;;;0.95;0.90;;;;;;;;;;5097777;28;20208;-83
2021/05/22 01:38:39;;;;;;;1.25;1.10;;;;;;;;;;5097561;28;20200;-83
2021/05/22 01:41:06;;;;;;;1.88;1.20;;;;;;;;;;5096475;28;20197;-83
2021/05/22 01:43:34;;;;;;;1.25;1.20;;;;;;;;;;5096949;28;20220;-83
2021/05/22 01:46:01;;;;;;;2.15;1.00;;;;;;;;;;5097135;28;20200;-84
2021/05/22 01:48:29;;;;;;;1.63;1.10;;;;;;;;;;5096966;28;20220;-82
2021/05/22 01:51:00;;;;;;;1.33;0.98;;;;;;;;;;5097498;28;20221;-83
2021/05/22 01:53:27;;;;;;;2.38;0.98;;;;;;;;;;5096961;28;20685;-83
2021/05/22 01:55:54;;;;;;;1.73;0.95;;;;;;;;;;5096362;28;20204;-83
2021/05/22 01:58:22;;;;;;;1.17;1.08;;;;;;;;;;5096446;28;20216;-83
2021/05/22 02:00:50;;;;;;;0.88;0.88;;;;;;;;;;5098037;28;20209;-83
2021/05/22 02:03:22;;;;;;;1.50;1.40;;;;;;;;;;5096818;28;20228;-84
2021/05/22 02:05:50;;;;;;;5.15;1.02;;;;;;;;;;5096966;28;20212;-83
2021/05/22 02:08:20;;;;;;;1.95;1.00;;;;;;;;;;5097496;28;20220;-83
2021/05/22 02:10:48;;;;;;;1.90;1.08;;;;;;;;;;5096579;28;20208;-83
2021/05/22 02:13:16;;;;;;;1.40;1.20;;;;;;;;;;5097124;28;20234;-83
2021/05/22 02:15:50;;;;;;;1.25;1.00;;;;;;;;;;5096647;28;20273;-84
2021/05/22 02:18:18;;;;;;;2.17;1.00;;;;;;;;;;5096515;28;20221;-83
2021/05/22 02:20:47;;;;;;;2.10;1.10;;;;;;;;;;5096809;28;20192;-84
2021/05/22 02:23:15;;;;;;;2.58;1.20;;;;;;;;;;5096428;28;20208;-83
2021/05/22 02:25:42;;;;;;;1.70;1.15;;;;;;;;;;5096439;28;20200;-83
2021/05/22 02:28:09;;;;;;;2.63;1.13;;;;;;;;;;5096085;28;20619;-83
2021/05/22 02:30:40;;;;;;;1.05;0.95;;;;;;;;;;5095891;28;20208;-83
2021/05/22 02:33:09;;;;;;;1.48;1.13;;;;;;;;;;5096250;28;20761;-84
2021/05/22 02:35:40;;;;;;;4.22;1.50;;;;;;;;;;5095692;28;20196;-83
2021/05/22 02:38:07;;;;;;;2.28;1.10;;;;;;;;;;5095205;28;20725;-84
2021/05/22 02:40:34;;;;;;;2.90;1.20;;;;;;;;;;5094926;28;20650;-83
2021/05/22 02:43:06;;;;;;;1.75;0.98;;;;;;;;;;5095202;28;20224;-83
2021/05/22 02:45:35;;;;;;;1.60;1.02;;;;;;;;;;5095503;28;20195;-84
2021/05/22 02:48:05;;;;;;;1.92;1.25;;;;;;;;;;5095466;28;20227;-83
2021/05/22 02:50:34;;;;;;;1.67;1.42;;;;;;;;;;5095730;28;20207;-84
2021/05/22 02:53:01;;;;;;;3.10;1.67;;;;;;;;;;5094643;28;20215;-84
2021/05/22 02:55:29;;;;;;;1.98;1.42;;;;;;;;;;5095857;28;20200;-84
2021/05/22 02:57:56;;;;;;;1.40;1.20;;;;;;;;;;5095294;28;20232;-84
2021/05/22 03:00:23;;;;;;;1.33;1.20;;;;;;;;;;5096047;28;20210;-83
2021/05/22 03:02:50;;;;;;;2.30;1.15;;;;;;;;;;5095270;28;20204;-83
2021/05/22 03:05:17;;;;;;;4.03;1.50;;;;;;;;;;5095491;28;20227;-84
2021/05/22 03:07:45;;;;;;;1.20;1.10;;;;;;;;;;5095708;28;20224;-84
2021/05/22 03:10:14;;;;;;;2.30;1.20;;;;;;;;;;5095885;28;20200;-83
2021/05/22 03:12:40;;;;;;;1.45;1.20;;;;;;;;;;5095245;28;20203;-84
2021/05/22 03:15:09;;;;;;;1.75;1.23;;;;;;;;;;5095010;28;20193;-83
2021/05/22 03:17:37;;;;;;;2.05;1.30;;;;;;;;;;5095681;28;20482;-83
2021/05/22 03:20:06;;;;;;;2.13;1.38;;;;;;;;;;5095853;28;20208;-83
2021/05/22 03:22:33;;;;;;;5.38;1.58;;;;;;;;;;5094952;28;20201;-84
2021/05/22 03:25:01;;;;;;;2.47;1.70;;;;;;;;;;5095126;28;20216;-84
2021/05/22 03:27:28;;;;;;;1.35;1.25;;;;;;;;;;5095124;28;20228;-84
2021/05/22 03:29:54;;;;;;;4.15;1.40;;;;;;;;;;5094810;28;20242;-83
2021/05/22 03:32:21;;;;;;;8.48;1.48;;;;;;;;;;5095630;28;20208;-84
2021/05/22 03:34:48;;;;;;;2.47;1.50;;;;;;;;;;5094625;28;20203;-83
2021/05/22 03:37:15;;;;;;;4.28;1.58;;;;;;;;;;5094573;28;20228;-83
2021/05/22 03:39:42;;;;;;;1.55;1.10;;;;;;;;;;5095316;28;20220;-83
2021/05/22 03:42:09;;;;;;;2.75;1.48;;;;;;;;;;5114548;28;20227;-83
2021/05/22 03:44:36;;;;;;;1.30;1.20;;;;;;;;;;5115090;28;20223;-83
2021/05/22 03:47:03;;;;;;;1.83;1.10;;;;;;;;;;5114297;28;20226;-83
2021/05/22 03:49:30;;;;;;;3.13;1.50;;;;;;;;;;5114982;28;20196;-83
2021/05/22 03:51:57;;;;;;;4.53;1.75;;;;;;;;;;5114389;28;20199;-83
2021/05/22 03:54:25;;;;;;;6.32;2.58;;;;;;;;;;5115169;28;20219;-83
2021/05/22 03:56:51;;;;;;;2.22;1.35;;;;;;;;;;5114672;28;20220;-83
2021/05/22 03:59:19;;;;;;;2.58;1.15;;;;;;;;;;5114658;28;20211;-83
2021/05/22 04:01:46;;;;;;;3.80;1.60;;;;;;;;;;5115067;28;20199;-84
2021/05/22 04:04:13;;;;;;;4.03;1.30;;;;;;;;;;5114899;28;20301;-84
2021/05/22 04:06:40;;;;;;;3.38;2.20;;;;;;;;;;5114269;28;20734;-83
2021/05/22 04:09:07;;;;;;;2.65;1.25;;;;;;;;;;5114397;28;20665;-84
2021/05/22 04:11:34;;;;;;;1.77;1.42;;;;;;;;;;5114591;28;20204;-83
2021/05/22 04:14:00;;;;;;;2.70;1.25;;;;;;;;;;5114622;28;20196;-83
2021/05/22 04:16:28;;;;;;;1.50;1.40;;;;;;;;;;5114407;28;20195;-83
2021/05/22 04:18:55;;;;;;;5.15;2.15;;;;;;;;;;5114440;28;20195;-84
2021/05/22 04:21:22;;;;;;;1.65;1.48;;;;;;;;;;5114724;28;20207;-83
2021/05/22 04:23:49;;;;;;;1.55;1.30;;;;;;;;;;5114276;28;20211;-84
2021/05/22 04:26:16;;;;;;;2.67;1.60;;;;;;;;;;5115193;27;20222;-84
2021/05/22 04:28:43;;;;;;;3.40;1.40;;;;;;;;;;5114472;28;20199;-83
2021/05/22 04:31:09;;;;;;;4.30;2.10;;;;;;;;;;5114798;28;20195;-83
2021/05/22 04:33:37;;;;;;;3.10;1.25;;;;;;;;;;5114660;28;20249;-83
2021/05/22 04:36:06;;;;;;;3.28;1.55;;;;;;;;;;5114193;28;20207;-83
2021/05/22 04:38:33;;;;;;;1.33;1.13;;;;;;;;;;5114278;28;20224;-83
2021/05/22 04:41:00;;;;;;;1.50;1.20;;;;;;;;;;5114080;28;20549;-83
2021/05/22 04:43:27;;;;;;;4.35;1.77;;;;;;;;;;5114254;28;20210;-83
2021/05/22 04:45:54;;;;;;;2.65;1.63;;;;;;;;;;5113991;28;20568;-83
2021/05/22 04:48:20;;;;;;;2.25;1.15;;;;;;;;;;5113629;28;20250;-83
2021/05/22 04:50:48;;;;;;;2.50;1.25;;;;;;;;;;5113937;28;20211;-83
2021/05/22 04:53:15;;;;;;;3.67;1.40;;;;;;;;;;5114354;28;20230;-83
2021/05/22 04:55:42;;;;;;;3.85;2.22;;;;;;;;;;5114013;28;20203;-83
2021/05/22 04:58:09;;;;;;;5.47;1.60;;;;;;;;;;5113928;28;20220;-83
2021/05/22 05:00:35;;;;;;;2.42;1.20;;;;;;;;;;5114059;28;20212;-83
2021/05/22 05:03:02;;;;;;;2.80;1.40;;;;;;;;;;5113585;28;20204;-83
2021/05/22 05:05:29;;;;;;;4.32;1.50;;;;;;;;;;5116717;28;20223;-83
2021/05/22 05:07:57;;;;;;;3.42;1.63;;;;;;;;;;5117467;28;20229;-83
2021/05/22 05:10:24;;;;;;;2.78;1.77;;;;;;;;;;5117779;28;20203;-83
2021/05/22 05:12:53;;;;;;;4.95;1.40;;;;;;;;;;5118050;28;20196;-83
2021/05/22 05:15:20;;;;;;;2.20;1.30;;;;;;;;;;5117917;28;20219;-83
2021/05/22 05:17:47;;;;;;;1.65;1.48;;;;;;;;;;5117547;28;20231;-83
2021/05/22 05:20:14;;;;;;;1.95;1.30;;;;;;;;;;5117966;28;20654;-83
2021/05/22 05:22:41;;;;;;;3.10;1.30;;;;;;;;;;5117738;28;20549;-83
2021/05/22 05:25:11;;;;;;;1.25;1.15;;;;;;;;;;5116976;28;20297;-83
2021/05/22 05:27:38;;;;;;;3.42;1.80;;;;;;;;;;5117431;28;20224;-83
2021/05/22 05:30:06;;;;;;;3.13;1.40;;;;;;;;;;5117346;28;20215;-83
2021/05/22 05:32:33;;;;;;;5.05;2.22;;;;;;;;;;5117509;28;20200;-83
2021/05/22 05:34:59;;;;;;;3.17;1.83;;;;;;;;;;5117301;28;20195;-83
2021/05/22 05:37:26;;;;;;;3.50;1.88;;;;;;;;;;5117292;28;20226;-83
2021/05/22 05:39:53;;;;;;;2.92;1.55;;;;;;;;;;5117702;27;20195;-83
2021/05/22 05:42:21;;;;;;;3.10;1.50;;;;;;;;;;5116878;28;20235;-83
2021/05/22 05:44:48;;;;;;;6.15;4.20;;;;;;;;;;5117158;28;20622;-84
2021/05/22 05:47:15;;;;;;;3.40;1.55;;;;;;;;;;5117257;28;20220;-84
2021/05/22 05:49:41;;;;;;;2.25;1.73;;;;;;;;;;5116901;28;20211;-84
2021/05/22 05:52:09;;;;;;;4.60;1.75;;;;;;;;;;5117998;28;20592;-84
2021/05/22 05:54:36;;;;;;;5.05;1.70;;;;;;;;;;5117361;28;20200;-84
2021/05/22 05:57:03;;;;;;;4.93;1.80;;;;;;;;;;5117434;28;20219;-84
2021/05/22 05:59:30;;;;;;;3.63;1.83;;;;;;;;;;5116910;28;20200;-84
2021/05/22 06:01:57;;;;;;;3.40;1.48;;;;;;;;;;5116509;28;20204;-84
2021/05/22 06:04:24;;;;;;;4.72;1.85;;;;;;;;;;5116702;28;20208;-83
2021/05/22 06:06:51;;;;;;;3.25;1.55;;;;;;;;;;5116391;28;20682;-84
2021/05/22 06:09:18;;;;;;;6.60;1.88;;;;;;;;;;5116714;28;20210;-83
2021/05/22 06:11:44;;;;;;;3.67;1.65;;;;;;;;;;5116501;28;20477;-84
2021/05/22 06:14:13;;;;;;;3.33;1.52;;;;;;;;;;5116085;28;20233;-84
2021/05/22 06:16:41;;;;;;;1.85;1.50;;;;;;;;;;5116859;28;20219;-83
2021/05/22 06:19:08;;;;;;;3.10;1.40;;;;;;;;;;5116960;28;20242;-83
2021/05/22 06:21:37;;;;;;;3.03;1.67;;;;;;;;;;5116943;28;20278;-83
2021/05/22 06:24:06;;;;;;;6.90;1.60;;;;;;;;;;5116844;28;20340;-84
2021/05/22 06:26:33;;;;;;;1.92;1.35;;;;;;;;;;5115984;28;20216;-83
2021/05/22 06:29:00;;;;;;;4.10;1.90;;;;;;;;;;5115621;28;20277;-84
2021/05/22 06:31:27;;;;;;;3.80;1.48;;;;;;;;;;5123153;27;20247;-85
2021/05/22 06:33:55;;;;;;;5.35;1.67;;;;;;;;;;5136501;27;20195;-85
2021/05/22 06:36:22;;;;;;;2.20;1.85;;;;;;;;;;5136307;27;20206;-85
2021/05/22 06:38:48;;;;;;;2.83;1.52;;;;;;;;;;5136501;27;20199;-85
2021/05/22 06:41:15;;;;;;;6.93;2.65;;;;;;;;;;5136967;27;20551;-85
2021/05/22 06:43:42;;;;;;;3.22;1.65;;;;;;;;;;5137313;27;20203;-84
2021/05/22 06:46:46;;;;;;;5.03;1.38;;;;;;;;;;5136631;27;20350;-84
2021/05/22 06:48:58;;;;;;;1.38;1.20;;;;;;;;;;5136665;27;20194;-84
2021/05/22 06:51:25;;;;;;;1.52;1.42;;;;;;;;;;5137165;27;20648;-84
2021/05/22 06:53:52;;;;;;;3.65;1.30;;;;;;;;;;5136061;27;20187;-84
2021/05/22 06:56:19;;;;;;;4.93;1.90;;;;;;;;;;5134201;27;20199;-84
2021/05/22 06:58:45;;;;;;;3.25;1.40;;;;;;;;;;5116395;28;20196;-84
2021/05/22 07:01:12;;;;;;;7.53;1.63;;;;;;;;;;5117347;28;20211;-84
2021/05/22 07:03:39;;;;;;;1.65;1.30;;;;;;;;;;5116911;28;20688;-84
2021/05/22 07:06:11;;;;;;;2.22;1.55;;;;;;;;;;5117202;28;20219;-84
2021/05/22 07:08:38;;;;;;;3.22;1.60;;;;;;;;;;5116649;28;20218;-83
2021/05/22 07:11:05;;;;;;;3.55;1.30;;;;;;;;;;5116310;28;20188;-84
2021/05/22 07:13:32;;;;;;;2.97;1.23;;;;;;;;;;5116886;28;20199;-84
2021/05/22 07:15:59;;;;;;;2.17;1.13;;;;;;;;;;5117083;28;20203;-84
2021/05/22 07:18:25;;;;;;;5.07;2.95;;;;;;;;;;5096298;28;20267;-84
2021/05/22 07:20:52;;;;;;;5.97;1.45;;;;;;;;;;5103470;28;20200;-84
2021/05/22 07:23:20;;;;;;;3.70;1.70;;;;;;;;;;5109604;28;20211;-83
2021/05/22 07:25:48;;;;;;;18.73;2.88;;;;;;;;;;5115712;27;20231;-84
2021/05/22 07:28:16;;;;;;;15.60;3.53;;;;;;;;;;5117486;28;20215;-84
2021/05/22 07:30:43;;;;;;;3.92;1.42;;;;;;;;;;5116699;28;20188;-84
2021/05/22 07:33:09;;;;;;;8.75;3.17;;;;;;;;;;5117923;28;20179;-84
2021/05/22 07:35:37;;;;;;;11.63;2.38;;;;;;;;;;5117206;28;20191;-83
2021/05/22 07:38:03;;;;;;;2.47;1.30;;;;;;;;;;5116938;28;20264;-83
2021/05/22 07:40:31;;;;;;;35.38;8.02;;;;;;;;;;5116225;28;20642;-84
2021/05/22 07:42:58;;;;;;;82.07;12.63;;;;;;;;;;5117142;28;20231;-84
2021/05/22 07:45:25;;;;;;;11.45;2.40;;;;;;;;;;5116296;28;20686;-84
2021/05/22 07:47:52;;;;;;;5.38;2.55;;;;;;;;;;5099621;28;20712;-83
2021/05/22 07:50:19;;;;;;;10.07;2.60;;;;;;;;;;5096017;28;20241;-83
2021/05/22 07:52:46;;;;;;;224.07;31.48;;;;;;;;;;5097097;28;20200;-84
2021/05/22 07:55:13;;;;;;;536.55;75.82;;;;;;;;;;5096033;28;20210;-84
2021/05/22 07:57:42;;;;;;;104.18;14.68;;;;;;;;;;5110139;28;20211;-83
2021/05/22 08:00:10;;;;;;;4.70;1.48;;;;;;;;;;5117672;28;20190;-83
2021/05/22 08:02:37;;;;;;;2.95;1.58;;;;;;;;;;5118282;28;20231;-83
2021/05/22 08:05:05;;;;;;;210.50;25.17;;;;;;;;;;5117166;28;20184;-83
2021/05/22 08:07:34;;;;;;;86.45;12.00;;;;;;;;;;5116976;28;20712;-84
2021/05/22 08:10:01;;;;;;;145.20;27.75;;;;;;;;;;5116361;28;20242;-84
2021/05/22 08:12:30;;;;;;;23.30;5.07;;;;;;;;;;5116348;28;20798;-84
2021/05/22 08:14:58;;;;;;;3.08;1.50;;;;;;;;;;5118845;28;20589;-83
2021/05/22 08:17:25;;;;;;;3.10;1.27;;;;;;;;;;5118031;28;20219;-83
2021/05/22 08:19:52;;;;;;;3.75;1.58;;;;;;;;;;5118201;28;20670;-84
2021/05/22 08:22:19;;;;;;;2.58;1.27;;;;;;;;;;5117870;28;20186;-84
2021/05/22 08:24:46;;;;;;;12.65;1.73;;;;;;;;;;5118375;28;20199;-83
2021/05/22 08:27:13;;;;;;;22.92;3.58;;;;;;;;;;5117122;28;20689;-83
2021/05/22 08:29:40;;;;;;;13.57;2.30;;;;;;;;;;5116998;28;20204;-84
2021/05/22 08:32:08;;;;;;;33.75;5.25;;;;;;;;;;5117353;28;20188;-84
2021/05/22 08:34:39;;;;;;;565.05;81.13;;;;;;;;;;5115991;28;20233;-83
2021/05/22 08:37:06;;;;;;;308.45;44.33;;;;;;;;;;5115694;28;20760;-84
2021/05/22 08:39:33;;;;;;;15.93;2.90;;;;;;;;;;5117629;28;20606;-83
2021/05/22 08:42:02;;;;;;;471.85;70.13;;;;;;;;;;5117898;28;20280;-84
2021/05/22 08:44:28;;;;;;;4.15;1.20;;;;;;;;;;5117568;28;20195;-84
2021/05/22 08:46:55;;;;;;;18.88;3.50;;;;;;;;;;5117468;28;20222;-83
2021/05/22 08:49:23;;;;;;;224.95;28.40;;;;;;;;;;5117375;28;20190;-83
2021/05/22 08:51:50;;;;;;;377.02;57.15;;;;;;;;;;5117161;28;20295;-84
2021/05/22 08:54:17;;;;;;;696.60;99.40;;;;;;;;;;5117559;28;20245;-83
2021/05/22 08:56:44;;;;;;;65.72;9.27;;;;;;;;;;5115567;28;20227;-84
2021/05/22 08:59:12;;;;;;;44.38;7.57;;;;;;;;;;5115233;28;20199;-82
2021/05/22 09:01:39;;;;;;;29.90;4.03;;;;;;;;;;5115865;28;20661;-83
2021/05/22 09:04:06;;;;;;;102.50;12.20;;;;;;;;;;5116346;28;20188;-83
2021/05/22 09:06:35;;;;;;;15.20;2.80;;;;;;;;;;5116547;28;20238;-83
2021/05/22 09:09:05;;;;;;;100.05;20.38;;;;;;;;;;5115750;28;20179;-82
2021/05/22 09:11:47;;;;;;;510.60;68.97;;;;;;;;;;5114789;28;20259;-82
2021/05/22 09:14:43;;;;;;;206.77;32.45;;;;;;;;;;5114644;28;20184;-83
2021/05/22 09:17:12;;;;;;;58.33;8.85;;;;;;;;;;5114168;28;20239;-83
2021/05/22 09:19:40;;;;;;;26.75;4.13;;;;;;;;;;5114876;28;20200;-82
2021/05/22 09:22:20;;;;;;;69.40;12.07;;;;;;;;;;5115532;28;20188;-83
2021/05/22 09:24:58;;;;;;;45.13;7.57;;;;;;;;;;5114676;28;20722;-84
2021/05/22 09:27:25;;;;;;;32.17;5.22;;;;;;;;;;5103887;28;20288;-84
2021/05/22 09:29:51;;;;;;;3.50;1.30;;;;;;;;;;5094968;28;20224;-82
2021/05/22 09:32:18;;;;;;;2.47;1.08;;;;;;;;;;5095314;28;20200;-82
2021/05/22 09:34:50;;;;;;;1.60;0.95;;;;;;;;;;5093754;28;20204;-83
2021/05/22 09:37:18;;;;;;;4.93;1.30;;;;;;;;;;5108589;28;20218;-83
2021/05/22 09:39:49;;;;;;;3.10;1.30;;;;;;;;;;5116945;28;20200;-82
2021/05/22 09:42:26;;;;;;;1.33;0.95;;;;;;;;;;5116711;28;20223;-82
2021/05/22 09:44:53;;;;;;;3.95;1.02;;;;;;;;;;5116083;28;20187;-82
2021/05/22 09:47:20;;;;;;;5.05;1.50;;;;;;;;;;5116244;28;20700;-81
2021/05/22 09:49:51;;;;;;;0.80;0.80;;;;;;;;;;5118947;28;20180;-81
2021/05/22 09:52:19;;;;;;;17.00;3.25;;;;;;;;;;5121803;28;20200;-82
2021/05/22 09:54:48;;;;;;;1.50;1.20;;;;;;;;;;5121559;28;20180;-81
2021/05/22 09:57:17;;;;;;;3.70;0.88;;;;;;;;;;5120228;27;20216;-81
2021/05/22 09:59:59;;;;;;;4.90;1.05;;;;;;;;;;5119522;28;20184;-81
2021/05/22 10:02:40;;;;;;;1.48;0.90;;;;;;;;;;5120250;28;20210;-81
2021/05/22 10:05:16;;;;;;;5.72;1.10;;;;;;;;;;5120220;28;20176;-82
2021/05/22 10:07:45;;;;;;;3.70;1.10;;;;;;;;;;5119282;28;20242;-81
2021/05/22 10:10:12;;;;;;;11.80;2.90;;;;;;;;;;5118665;28;20294;-81
2021/05/22 10:12:40;;;;;;;48.28;8.07;;;;;;;;;;5119022;28;20180;-82
2021/05/22 10:15:08;;;;;;;181.82;26.35;;;;;;;;;;5119150;28;20186;-82
2021/05/22 10:17:36;;;;;;;482.48;73.97;;;;;;;;;;5119315;28;20222;-82
2021/05/22 10:20:03;;;;;;;1983.50;332.15;;;;;;;;;;5120174;28;20264;-82
2021/05/22 10:22:30;;;;;;;181.18;27.08;;;;;;;;;;5120204;28;20685;-83
2021/05/22 10:24:58;;;;;;;112.15;17.90;;;;;;;;;;5119682;28;20199;-82
2021/05/22 10:27:25;;;;;;;59.63;11.15;;;;;;;;;;5107430;28;20254;-82
2021/05/22 10:29:52;;;;;;;365.55;51.35;;;;;;;;;;5100005;28;20566;-82
2021/05/22 10:32:22;;;;;;;354.10;54.13;;;;;;;;;;5099370;28;20207;-83
2021/05/22 10:34:49;;;;;;;360.35;62.58;;;;;;;;;;5099717;28;20192;-82
2021/05/22 10:37:40;;;;;;;94.88;18.00;;;;;;;;;;5109383;28;20216;-83
2021/05/22 10:40:10;;;;;;;70.50;12.25;;;;;;;;;;5118649;27;20180;-83
2021/05/22 10:42:55;;;;;;;215.00;34.50;;;;;;;;;;5119809;28;20238;-82
2021/05/22 10:45:38;;;;;;;185.93;23.05;;;;;;;;;;5118367;28;20191;-82
2021/05/22 10:48:08;;;;;;;17.10;5.30;;;;;;;;;;5118234;28;20227;-84
2021/05/22 10:50:44;;;;;;;3.17;1.08;;;;;;;;;;5117691;28;20244;-81
2021/05/22 10:53:33;;;;;;;587.40;75.97;;;;;;;;;;5116629;28;20195;-81
2021/05/22 10:56:14;;;;;;;102.03;13.93;;;;;;;;;;5116138;28;20190;-81
2021/05/22 13:33:38;;;;;;;1.67;1.10;;;;;;;;;;5151580;27;20481;-81
2021/05/22 13:36:05;;;;;;;3.60;1.55;;;;;;;;;;5131611;28;20605;-82
2021/05/22 13:38:32;;;;;;;1.10;0.93;;;;;;;;;;5111288;27;20215;-81
2021/05/22 13:40:59;;;;;;;1.40;1.10;;;;;;;;;;5111150;28;20571;-80
2021/05/22 13:43:32;;;;;;;1.40;1.10;;;;;;;;;;5111125;28;20183;-79
2021/05/22 13:46:02;;;;;;;2.80;1.15;;;;;;;;;;5111343;28;20184;-79
2021/05/22 13:48:30;;;;;;;3.78;1.23;;;;;;;;;;5111288;28;20223;-80
2021/05/22 13:50:57;;;;;;;2.38;1.27;;;;;;;;;;5111338;28;20184;-80
2021/05/22 13:53:24;;;;;;;3.00;1.02;;;;;;;;;;5111253;28;20200;-81
2021/05/22 13:55:51;;;;;;;0.95;0.90;;;;;;;;;;5111308;28;20188;-81
2021/05/22 13:58:18;;;;;;;1.25;1.15;;;;;;;;;;5110549;28;20223;-81
2021/05/22 14:00:45;;;;;;;1.85;1.40;;;;;;;;;;5111102;28;20207;-82
2021/05/22 14:03:12;;;;;;;1.52;1.10;;;;;;;;;;5111493;28;20180;-81
2021/05/22 14:05:40;;;;;;;1.77;1.55;;;;;;;;;;5111144;28;20199;-81
2021/05/22 14:08:06;;;;;;;1.63;0.90;;;;;;;;;;5111011;28;20608;-81
2021/05/22 14:10:33;;;;;;;2.00;1.20;;;;;;;;;;5111230;28;20200;-82
2021/05/22 14:13:01;;;;;;;1.30;1.17;;;;;;;;;;5110468;28;20204;-81
2021/05/22 14:15:28;;;;;;;1.30;1.02;;;;;;;;;;5111098;28;20286;-81
2021/05/22 14:17:56;;;;;;;1.98;1.30;;;;;;;;;;5110774;28;20224;-81
2021/05/22 14:20:23;;;;;;;2.60;1.25;;;;;;;;;;5110672;28;20656;-81
2021/05/22 14:22:51;;;;;;;2.17;1.02;;;;;;;;;;5110962;28;20199;-81
2021/05/22 14:25:19;;;;;;;1.77;1.13;;;;;;;;;;5110280;28;20196;-81
2021/05/22 14:27:46;;;;;;;1.42;1.20;;;;;;;;;;5110586;28;20231;-81
2021/05/22 14:30:16;;;;;;;2.38;1.05;;;;;;;;;;5110603;28;20196;-81
2021/05/22 14:32:45;;;;;;;4.70;1.60;;;;;;;;;;5110421;28;20720;-81
2021/05/22 14:35:18;;;;;;;1.75;1.27;;;;;;;;;;5110507;28;20188;-81
2021/05/22 14:37:45;;;;;;;3.65;1.10;;;;;;;;;;5110747;28;20247;-81
2021/05/22 14:40:15;;;;;;;2.20;1.38;;;;;;;;;;5110440;28;20200;-82
2021/05/22 14:42:42;;;;;;;2.58;1.33;;;;;;;;;;5107859;28;20688;-81
2021/05/22 14:45:11;;;;;;;6.55;1.67;;;;;;;;;;5097506;28;20212;-82
2021/05/22 14:47:38;;;;;;;1.17;1.08;;;;;;;;;;5098447;28;20278;-81
2021/05/22 14:50:07;;;;;;;2.28;1.35;;;;;;;;;;5098046;28;20204;-81
2021/05/22 14:52:34;;;;;;;1.10;1.00;;;;;;;;;;5098208;28;20208;-82
2021/05/22 14:55:01;;;;;;;2.00;1.13;;;;;;;;;;5098736;28;20181;-82
2021/05/22 14:57:29;;;;;;;2.10;1.20;;;;;;;;;;5097563;28;20224;-81
2021/05/22 14:59:56;;;;;;;1.13;1.00;;;;;;;;;;5097442;28;20208;-81
2021/05/22 15:02:22;;;;;;;1.55;1.10;;;;;;;;;;5098100;28;20188;-82
2021/05/22 15:04:49;;;;;;;2.05;1.05;;;;;;;;;;5098237;28;20196;-81
2021/05/22 15:07:16;;;;;;;2.08;1.10;;;;;;;;;;5098030;28;20216;-81
2021/05/22 15:09:43;;;;;;;1.67;1.13;;;;;;;;;;5097416;28;20200;-81
2021/05/22 15:12:10;;;;;;;1.23;1.10;;;;;;;;;;5097893;28;20560;-81
2021/05/22 15:14:38;;;;;;;2.05;1.42;;;;;;;;;;5097817;28;20189;-81
2021/05/22 15:17:05;;;;;;;1.08;0.98;;;;;;;;;;5097176;28;20224;-82
2021/05/22 15:19:32;;;;;;;0.98;0.85;;;;;;;;;;5097734;28;20195;-81
2021/05/22 15:21:59;;;;;;;1.08;0.98;;;;;;;;;;5096937;28;20201;-81
2021/05/22 15:24:26;;;;;;;1.95;1.17;;;;;;;;;;5097235;28;20204;-81
2021/05/22 15:26:53;;;;;;;1.23;1.10;;;;;;;;;;5097220;28;20228;-81
2021/05/22 15:29:19;;;;;;;2.38;0.90;;;;;;;;;;5096943;28;20200;-81
2021/05/22 15:31:48;;;;;;;1.33;1.00;;;;;;;;;;5096850;28;20223;-81
2021/05/22 15:34:14;;;;;;;1.23;0.88;;;;;;;;;;5096808;28;20550;-81
2021/05/22 15:36:41;;;;;;;1.73;1.00;;;;;;;;;;5097300;28;20223;-82
2021/05/22 15:39:09;;;;;;;6.57;1.52;;;;;;;;;;5097322;28;20209;-81
2021/05/22 15:41:36;;;;;;;1.15;0.98;;;;;;;;;;5097481;28;20204;-81
2021/05/22 15:44:06;;;;;;;6.32;1.70;;;;;;;;;;5096515;28;20209;-81
2021/05/22 15:46:34;;;;;;;2.15;1.13;;;;;;;;;;5096644;28;20216;-81
2021/05/22 15:49:42;;;;;;;1.00;0.90;;;;;;;;;;5096799;28;20188;-81
2021/05/22 15:55:45;;;;;;;1.20;1.10;;;;;;;;;;5095686;28;20180;-81
2021/05/22 15:58:14;;;;;;;2.35;1.10;;;;;;;;;;5096168;28;20316;-81
2021/05/22 16:00:47;;;;;;;1.92;1.10;;;;;;;;;;5096090;28;20204;-81
2021/05/22 16:03:27;;;;;;;4.93;1.27;;;;;;;;;;5096729;28;20188;-82
2021/05/22 16:05:55;;;;;;;1.63;1.30;;;;;;;;;;5096042;28;20188;-81
2021/05/22 16:08:22;;;;;;;1.83;1.15;;;;;;;;;;5096063;28;20220;-81
2021/05/22 16:10:50;;;;;;;3.13;1.30;;;;;;;;;;5096248;28;20180;-81
2021/05/22 16:13:18;;;;;;;1.10;1.00;;;;;;;;;;5096330;28;20205;-82
2021/05/22 16:15:45;;;;;;;3.55;1.55;;;;;;;;;;5096190;28;20181;-81
2021/05/22 16:18:12;;;;;;;2.38;1.23;;;;;;;;;;5095572;28;20223;-81
2021/05/22 16:20:40;;;;;;;2.42;1.35;;;;;;;;;;5095820;28;20627;-81
2021/05/22 16:23:10;;;;;;;3.58;1.70;;;;;;;;;;5095900;28;20223;-82
2021/05/22 16:25:38;;;;;;;1.63;1.05;;;;;;;;;;5096043;28;20610;-81
2021/05/22 16:28:05;;;;;;;1.88;1.25;;;;;;;;;;5095657;28;20221;-82
2021/05/22 16:30:33;;;;;;;1.63;1.08;;;;;;;;;;5095271;28;20183;-81
2021/05/22 16:33:00;;;;;;;1.65;0.98;;;;;;;;;;5095202;28;20232;-82
2021/05/22 16:35:27;;;;;;;2.20;1.30;;;;;;;;;;5095782;28;20192;-81
2021/05/22 16:37:54;;;;;;;2.10;0.75;;;;;;;;;;5095604;28;20212;-81
2021/05/22 16:40:22;;;;;;;0.98;0.88;;;;;;;;;;5095051;28;20551;-81
2021/05/22 16:42:49;;;;;;;0.85;0.85;;;;;;;;;;5095569;28;20635;-82
2021/05/22 16:45:17;;;;;;;1.27;0.90;;;;;;;;;;5094145;28;20207;-81
2021/05/22 16:47:46;;;;;;;1.08;0.98;;;;;;;;;;5095445;28;20230;-81
2021/05/22 16:50:15;;;;;;;0.90;0.90;;;;;;;;;;5095299;28;20184;-82
2021/05/22 16:52:42;;;;;;;1.40;1.13;;;;;;;;;;5095353;28;20200;-81
2021/05/22 16:55:10;;;;;;;2.03;0.90;;;;;;;;;;5095589;28;20204;-81
2021/05/22 16:57:38;;;;;;;1.10;0.95;;;;;;;;;;5095947;28;20224;-82
2021/05/22 17:00:07;;;;;;;0.77;0.77;;;;;;;;;;5095162;28;20728;-82
2021/05/22 17:02:35;;;;;;;1.33;0.80;;;;;;;;;;5095261;28;20219;-82
2021/05/22 17:05:02;;;;;;;1.63;1.13;;;;;;;;;;5094791;28;20696;-81
2021/05/22 17:07:29;;;;;;;1.08;0.90;;;;;;;;;;5095431;28;20577;-81
2021/05/22 17:09:56;;;;;;;1.23;1.00;;;;;;;;;;5094943;28;20188;-82
2021/05/22 17:12:23;;;;;;;0.82;0.80;;;;;;;;;;5095113;28;20181;-82
2021/05/22 17:14:51;;;;;;;1.40;1.27;;;;;;;;;;5094946;28;20185;-81
2021/05/22 17:17:18;;;;;;;0.75;0.75;;;;;;;;;;5095324;28;20220;-82
2021/05/22 17:19:45;;;;;;;3.72;1.23;;;;;;;;;;5094800;28;20200;-82
2021/05/22 17:22:11;;;;;;;1.48;0.95;;;;;;;;;;5095486;28;20692;-83